sensor_id;sensor_type;location;lat;lon;timestamp;temperature;humidity
37052;DHT22;22964;52.272;13.356;2022-11-20T00:00:53;4.50;74.20
37052;DHT22;22964;52.272;13.356;2022-11-20T00:03:19;4.60;74.30
37052;DHT22;22964;52.272;13.356;2022-11-20T00:05:45;4.50;74.30
37052;DHT22;22964;52.272;13.356;2022-11-20T00:08:11;4.50;74.20
37052;DHT22;22964;52.272;13.356;2022-11-20T00:10:37;4.60;74.30
37052;DHT22;22964;52.272;13.356;2022-11-20T00:13:03;4.60;75.10
37052;DHT22;22964;52.272;13.356;2022-11-20T00:15:29;4.60;74.30
37052;DHT22;22964;52.272;13.356;2022-11-20T00:17:55;4.60;75.10
37052;DHT22;22964;52.272;13.356;2022-11-20T00:20:21;4.60;74.30
37052;DHT22;22964;52.272;13.356;2022-11-20T00:22:47;4.60;75.10
37052;DHT22;22964;52.272;13.356;2022-11-20T00:25:12;4.60;74.30
37052;DHT22;22964;52.272;13.356;2022-11-20T00:27:38;4.60;74.20
37052;DHT22;22964;52.272;13.356;2022-11-20T00:30:05;4.60;74.90
37052;DHT22;22964;52.272;13.356;2022-11-20T00:32:30;4.60;74.10
37052;DHT22;22964;52.272;13.356;2022-11-20T00:34:56;4.60;74.10
37052;DHT22;22964;52.272;13.356;2022-11-20T00:37:22;4.60;74.80
37052;DHT22;22964;52.272;13.356;2022-11-20T00:39:47;4.60;73.90
37052;DHT22;22964;52.272;13.356;2022-11-20T00:42:13;4.60;73.90
37052;DHT22;22964;52.272;13.356;2022-11-20T00:44:39;4.60;73.80
37052;DHT22;22964;52.272;13.356;2022-11-20T00:47:05;4.60;73.80
37052;DHT22;22964;52.272;13.356;2022-11-20T00:49:30;4.60;73.90
37052;DHT22;22964;52.272;13.356;2022-11-20T00:51:56;4.60;73.90
37052;DHT22;22964;52.272;13.356;2022-11-20T00:54:22;4.60;74.00
37052;DHT22;22964;52.272;13.356;2022-11-20T00:56:47;4.50;74.00
37052;DHT22;22964;52.272;13.356;2022-11-20T00:59:13;4.60;74.00
37052;DHT22;22964;52.272;13.356;2022-11-20T01:01:39;4.50;74.00
37052;DHT22;22964;52.272;13.356;2022-11-20T01:04:05;4.60;74.90
37052;DHT22;22964;52.272;13.356;2022-11-20T01:06:36;4.60;74.00
37052;DHT22;22964;52.272;13.356;2022-11-20T01:09:06;4.60;74.10
37052;DHT22;22964;52.272;13.356;2022-11-20T01:11:34;4.60;74.10
37052;DHT22;22964;52.272;13.356;2022-11-20T01:14:02;4.60;74.10
37052;DHT22;22964;52.272;13.356;2022-11-20T01:16:31;4.60;74.10
37052;DHT22;22964;52.272;13.356;2022-11-20T01:18:59;4.50;74.00
37052;DHT22;22964;52.272;13.356;2022-11-20T01:21:30;4.60;74.00
37052;DHT22;22964;52.272;13.356;2022-11-20T01:23:56;4.60;74.00
37052;DHT22;22964;52.272;13.356;2022-11-20T01:26:25;4.60;74.00
37052;DHT22;22964;52.272;13.356;2022-11-20T01:28:51;4.60;74.10
37052;DHT22;22964;52.272;13.356;2022-11-20T01:31:35;4.60;74.00
37052;DHT22;22964;52.272;13.356;2022-11-20T01:34:03;4.50;74.00
37052;DHT22;22964;52.272;13.356;2022-11-20T01:36:31;4.50;73.90
37052;DHT22;22964;52.272;13.356;2022-11-20T01:38:59;4.60;74.80
37052;DHT22;22964;52.272;13.356;2022-11-20T01:41:26;4.50;73.90
37052;DHT22;22964;52.272;13.356;2022-11-20T01:44:13;4.50;73.80
37052;DHT22;22964;52.272;13.356;2022-11-20T01:46:45;4.50;73.80
37052;DHT22;22964;52.272;13.356;2022-11-20T01:49:22;4.50;73.80
37052;DHT22;22964;52.272;13.356;2022-11-20T01:51:55;4.50;73.90
37052;DHT22;22964;52.272;13.356;2022-11-20T01:54:28;4.50;73.90
37052;DHT22;22964;52.272;13.356;2022-11-20T01:56:57;4.50;73.80
37052;DHT22;22964;52.272;13.356;2022-11-20T01:59:25;4.50;73.80
37052;DHT22;22964;52.272;13.356;2022-11-20T02:01:52;4.50;73.70
37052;DHT22;22964;52.272;13.356;2022-11-20T02:04:18;4.50;73.70
37052;DHT22;22964;52.272;13.356;2022-11-20T02:07:01;4.50;73.60
37052;DHT22;22964;52.272;13.356;2022-11-20T02:09:28;4.50;73.50
37052;DHT22;22964;52.272;13.356;2022-11-20T02:11:54;4.40;73.40
37052;DHT22;22964;52.272;13.356;2022-11-20T02:14:21;4.40;73.40
37052;DHT22;22964;52.272;13.356;2022-11-20T02:16:48;4.40;73.30
37052;DHT22;22964;52.272;13.356;2022-11-20T02:19:35;4.40;73.30
37052;DHT22;22964;52.272;13.356;2022-11-20T02:24:54;4.30;73.20
37052;DHT22;22964;52.272;13.356;2022-11-20T02:27:20;4.30;73.10
37052;DHT22;22964;52.272;13.356;2022-11-20T02:29:52;4.30;73.20
37052;DHT22;22964;52.272;13.356;2022-11-20T02:34:48;4.30;73.10
37052;DHT22;22964;52.272;13.356;2022-11-20T02:37:14;4.20;74.00
37052;DHT22;22964;52.272;13.356;2022-11-20T02:39:41;4.20;73.20
37052;DHT22;22964;52.272;13.356;2022-11-20T02:42:07;4.20;73.20
37052;DHT22;22964;52.272;13.356;2022-11-20T02:44:32;4.20;73.10
37052;DHT22;22964;52.272;13.356;2022-11-20T02:46:59;4.20;73.10
37052;DHT22;22964;52.272;13.356;2022-11-20T02:49:25;4.10;73.00
37052;DHT22;22964;52.272;13.356;2022-11-20T02:51:51;4.10;73.10
37052;DHT22;22964;52.272;13.356;2022-11-20T02:54:16;4.10;73.00
37052;DHT22;22964;52.272;13.356;2022-11-20T02:56:42;4.10;73.10
37052;DHT22;22964;52.272;13.356;2022-11-20T02:59:08;4.10;73.10
37052;DHT22;22964;52.272;13.356;2022-11-20T03:01:34;4.00;73.00
37052;DHT22;22964;52.272;13.356;2022-11-20T03:04:00;4.00;73.00
37052;DHT22;22964;52.272;13.356;2022-11-20T03:06:26;4.00;73.00
37052;DHT22;22964;52.272;13.356;2022-11-20T03:08:51;4.00;73.10
37052;DHT22;22964;52.272;13.356;2022-11-20T03:11:17;4.00;73.20
37052;DHT22;22964;52.272;13.356;2022-11-20T03:13:43;4.00;73.20
37052;DHT22;22964;52.272;13.356;2022-11-20T03:16:15;4.00;73.30
37052;DHT22;22964;52.272;13.356;2022-11-20T03:18:42;4.00;73.40
37052;DHT22;22964;52.272;13.356;2022-11-20T03:21:09;4.00;73.50
37052;DHT22;22964;52.272;13.356;2022-11-20T03:23:35;3.90;73.50
37052;DHT22;22964;52.272;13.356;2022-11-20T03:26:24;4.00;74.50
37052;DHT22;22964;52.272;13.356;2022-11-20T03:29:01;3.90;73.80
37052;DHT22;22964;52.272;13.356;2022-11-20T03:31:35;3.90;73.80
37052;DHT22;22964;52.272;13.356;2022-11-20T03:34:01;4.00;73.90
37052;DHT22;22964;52.272;13.356;2022-11-20T03:36:28;4.00;74.00
37052;DHT22;22964;52.272;13.356;2022-11-20T03:38:55;4.00;74.10
37052;DHT22;22964;52.272;13.356;2022-11-20T03:41:29;4.00;74.20
37052;DHT22;22964;52.272;13.356;2022-11-20T03:43:58;4.00;74.30
37052;DHT22;22964;52.272;13.356;2022-11-20T03:46:24;4.00;74.30
37052;DHT22;22964;52.272;13.356;2022-11-20T03:48:50;4.00;74.30
37052;DHT22;22964;52.272;13.356;2022-11-20T03:51:22;4.00;74.50
37052;DHT22;22964;52.272;13.356;2022-11-20T03:53:49;4.10;74.40
37052;DHT22;22964;52.272;13.356;2022-11-20T03:56:16;4.10;74.40
37052;DHT22;22964;52.272;13.356;2022-11-20T03:58:42;4.10;74.50
37052;DHT22;22964;52.272;13.356;2022-11-20T04:01:11;4.10;74.50
37052;DHT22;22964;52.272;13.356;2022-11-20T04:03:39;4.10;74.50
37052;DHT22;22964;52.272;13.356;2022-11-20T04:06:13;4.10;74.50
37052;DHT22;22964;52.272;13.356;2022-11-20T04:08:40;4.20;74.60
37052;DHT22;22964;52.272;13.356;2022-11-20T04:11:11;4.20;75.50
37052;DHT22;22964;52.272;13.356;2022-11-20T04:13:37;4.20;74.70
37052;DHT22;22964;52.272;13.356;2022-11-20T04:16:04;4.20;74.70
37052;DHT22;22964;52.272;13.356;2022-11-20T04:18:30;4.20;74.70
37052;DHT22;22964;52.272;13.356;2022-11-20T04:20:57;4.20;74.70
37052;DHT22;22964;52.272;13.356;2022-11-20T04:23:23;4.30;74.70
37052;DHT22;22964;52.272;13.356;2022-11-20T04:25:49;4.30;74.70
37052;DHT22;22964;52.272;13.356;2022-11-20T04:28:15;4.30;74.70
37052;DHT22;22964;52.272;13.356;2022-11-20T04:30:40;4.30;74.70
37052;DHT22;22964;52.272;13.356;2022-11-20T04:33:06;4.30;74.80
37052;DHT22;22964;52.272;13.356;2022-11-20T04:35:35;4.30;74.80
37052;DHT22;22964;52.272;13.356;2022-11-20T04:38:01;4.30;74.70
37052;DHT22;22964;52.272;13.356;2022-11-20T04:40:28;4.30;74.70
37052;DHT22;22964;52.272;13.356;2022-11-20T04:42:54;4.40;74.70
37052;DHT22;22964;52.272;13.356;2022-11-20T04:45:20;4.40;74.70
37052;DHT22;22964;52.272;13.356;2022-11-20T04:47:46;4.40;75.40
37052;DHT22;22964;52.272;13.356;2022-11-20T04:50:12;4.40;74.50
37052;DHT22;22964;52.272;13.356;2022-11-20T04:52:37;4.40;74.50
37052;DHT22;22964;52.272;13.356;2022-11-20T04:55:03;4.40;74.40
37052;DHT22;22964;52.272;13.356;2022-11-20T04:57:29;4.50;74.50
37052;DHT22;22964;52.272;13.356;2022-11-20T04:59:55;4.40;74.30
37052;DHT22;22964;52.272;13.356;2022-11-20T05:02:21;4.50;74.40
37052;DHT22;22964;52.272;13.356;2022-11-20T05:04:46;4.50;74.30
37052;DHT22;22964;52.272;13.356;2022-11-20T05:07:12;4.50;74.30
37052;DHT22;22964;52.272;13.356;2022-11-20T05:09:38;4.50;74.20
37052;DHT22;22964;52.272;13.356;2022-11-20T05:12:04;4.50;75.00
37052;DHT22;22964;52.272;13.356;2022-11-20T05:14:30;4.50;74.10
37052;DHT22;22964;52.272;13.356;2022-11-20T05:16:55;4.50;74.00
37052;DHT22;22964;52.272;13.356;2022-11-20T05:19:21;4.50;74.00
37052;DHT22;22964;52.272;13.356;2022-11-20T05:21:47;4.50;74.00
37052;DHT22;22964;52.272;13.356;2022-11-20T05:24:12;4.50;73.90
37052;DHT22;22964;52.272;13.356;2022-11-20T05:26:38;4.50;73.90
37052;DHT22;22964;52.272;13.356;2022-11-20T05:29:04;4.60;74.70
37052;DHT22;22964;52.272;13.356;2022-11-20T05:31:30;4.50;73.70
37052;DHT22;22964;52.272;13.356;2022-11-20T05:33:56;4.50;73.50
37052;DHT22;22964;52.272;13.356;2022-11-20T05:36:22;4.50;73.50
37052;DHT22;22964;52.272;13.356;2022-11-20T05:38:48;4.50;73.30
37052;DHT22;22964;52.272;13.356;2022-11-20T05:41:16;4.50;73.20
37052;DHT22;22964;52.272;13.356;2022-11-20T05:43:43;4.50;73.10
37052;DHT22;22964;52.272;13.356;2022-11-20T05:46:12;4.50;73.00
37052;DHT22;22964;52.272;13.356;2022-11-20T05:48:40;4.50;72.90
37052;DHT22;22964;52.272;13.356;2022-11-20T05:51:07;4.40;72.70
37052;DHT22;22964;52.272;13.356;2022-11-20T05:53:34;4.40;72.60
37052;DHT22;22964;52.272;13.356;2022-11-20T05:56:12;4.40;72.60
37052;DHT22;22964;52.272;13.356;2022-11-20T05:58:38;4.40;72.40
37052;DHT22;22964;52.272;13.356;2022-11-20T06:01:11;4.40;72.40
37052;DHT22;22964;52.272;13.356;2022-11-20T06:03:38;4.30;72.20
37052;DHT22;22964;52.272;13.356;2022-11-20T06:06:05;4.30;72.90
37052;DHT22;22964;52.272;13.356;2022-11-20T06:08:31;4.30;72.10
37052;DHT22;22964;52.272;13.356;2022-11-20T06:10:57;4.30;72.10
37052;DHT22;22964;52.272;13.356;2022-11-20T06:13:23;4.20;72.00
37052;DHT22;22964;52.272;13.356;2022-11-20T06:15:50;4.20;72.00
37052;DHT22;22964;52.272;13.356;2022-11-20T06:18:16;4.20;71.90
37052;DHT22;22964;52.272;13.356;2022-11-20T06:20:41;4.20;72.00
37052;DHT22;22964;52.272;13.356;2022-11-20T06:23:07;4.10;71.90
37052;DHT22;22964;52.272;13.356;2022-11-20T06:25:33;4.20;72.00
37052;DHT22;22964;52.272;13.356;2022-11-20T06:28:02;4.10;71.90
37052;DHT22;22964;52.272;13.356;2022-11-20T06:30:27;4.10;72.00
37052;DHT22;22964;52.272;13.356;2022-11-20T06:32:53;4.10;72.00
37052;DHT22;22964;52.272;13.356;2022-11-20T06:35:19;4.10;72.00
37052;DHT22;22964;52.272;13.356;2022-11-20T06:37:44;4.00;72.90
37052;DHT22;22964;52.272;13.356;2022-11-20T06:40:11;4.00;72.90
37052;DHT22;22964;52.272;13.356;2022-11-20T06:42:36;4.00;72.10
37052;DHT22;22964;52.272;13.356;2022-11-20T06:45:02;4.00;72.20
37052;DHT22;22964;52.272;13.356;2022-11-20T06:47:28;4.00;72.30
37052;DHT22;22964;52.272;13.356;2022-11-20T06:49:54;4.00;72.40
37052;DHT22;22964;52.272;13.356;2022-11-20T06:52:19;4.00;72.40
37052;DHT22;22964;52.272;13.356;2022-11-20T06:54:45;4.00;72.40
37052;DHT22;22964;52.272;13.356;2022-11-20T06:57:11;4.00;72.40
37052;DHT22;22964;52.272;13.356;2022-11-20T06:59:36;4.00;72.40
37052;DHT22;22964;52.272;13.356;2022-11-20T07:02:02;4.00;72.40
37052;DHT22;22964;52.272;13.356;2022-11-20T07:04:27;3.90;72.40
37052;DHT22;22964;52.272;13.356;2022-11-20T07:06:53;4.00;72.50
37052;DHT22;22964;52.272;13.356;2022-11-20T07:09:19;4.00;72.50
37052;DHT22;22964;52.272;13.356;2022-11-20T07:11:44;4.00;72.40
37052;DHT22;22964;52.272;13.356;2022-11-20T07:14:10;3.90;72.40
37052;DHT22;22964;52.272;13.356;2022-11-20T07:16:36;4.00;72.40
37052;DHT22;22964;52.272;13.356;2022-11-20T07:19:02;4.00;72.40
37052;DHT22;22964;52.272;13.356;2022-11-20T07:21:28;4.00;72.40
37052;DHT22;22964;52.272;13.356;2022-11-20T07:23:53;4.00;72.40
37052;DHT22;22964;52.272;13.356;2022-11-20T07:26:19;4.00;72.40
37052;DHT22;22964;52.272;13.356;2022-11-20T07:28:45;3.90;72.30
37052;DHT22;22964;52.272;13.356;2022-11-20T07:31:11;4.00;73.20
37052;DHT22;22964;52.272;13.356;2022-11-20T07:33:38;3.90;72.30
37052;DHT22;22964;52.272;13.356;2022-11-20T07:36:04;4.00;72.40
37052;DHT22;22964;52.272;13.356;2022-11-20T07:38:30;4.00;72.40
37052;DHT22;22964;52.272;13.356;2022-11-20T07:40:57;4.00;72.40
37052;DHT22;22964;52.272;13.356;2022-11-20T07:43:27;3.90;72.40
37052;DHT22;22964;52.272;13.356;2022-11-20T07:45:57;4.00;72.50
37052;DHT22;22964;52.272;13.356;2022-11-20T07:48:23;3.90;72.40
37052;DHT22;22964;52.272;13.356;2022-11-20T07:50:49;4.00;72.50
37052;DHT22;22964;52.272;13.356;2022-11-20T07:53:15;4.00;72.50
37052;DHT22;22964;52.272;13.356;2022-11-20T07:55:46;4.00;72.60
37052;DHT22;22964;52.272;13.356;2022-11-20T07:58:12;4.00;72.60
37052;DHT22;22964;52.272;13.356;2022-11-20T08:00:37;4.00;72.80
37052;DHT22;22964;52.272;13.356;2022-11-20T08:03:04;4.00;72.80
37052;DHT22;22964;52.272;13.356;2022-11-20T08:05:30;4.00;72.80
37052;DHT22;22964;52.272;13.356;2022-11-20T08:07:55;4.00;72.70
37052;DHT22;22964;52.272;13.356;2022-11-20T08:10:21;4.00;72.80
37052;DHT22;22964;52.272;13.356;2022-11-20T08:12:51;4.00;72.70
37052;DHT22;22964;52.272;13.356;2022-11-20T08:15:37;4.00;72.60
37052;DHT22;22964;52.272;13.356;2022-11-20T08:18:08;4.00;72.50
37052;DHT22;22964;52.272;13.356;2022-11-20T08:20:34;4.00;72.40
37052;DHT22;22964;52.272;13.356;2022-11-20T08:23:06;4.00;72.40
37052;DHT22;22964;52.272;13.356;2022-11-20T08:25:33;4.00;72.40
37052;DHT22;22964;52.272;13.356;2022-11-20T08:28:01;4.00;72.40
37052;DHT22;22964;52.272;13.356;2022-11-20T08:30:28;4.00;72.30
37052;DHT22;22964;52.272;13.356;2022-11-20T08:32:54;4.00;72.40
37052;DHT22;22964;52.272;13.356;2022-11-20T08:35:21;4.00;72.40
37052;DHT22;22964;52.272;13.356;2022-11-20T08:37:47;4.00;72.40
37052;DHT22;22964;52.272;13.356;2022-11-20T08:40:13;4.10;72.30
37052;DHT22;22964;52.272;13.356;2022-11-20T08:42:51;4.10;72.10
37052;DHT22;22964;52.272;13.356;2022-11-20T08:45:18;4.10;71.90
37052;DHT22;22964;52.272;13.356;2022-11-20T08:47:44;4.10;72.00
37052;DHT22;22964;52.272;13.356;2022-11-20T08:50:12;4.10;71.90
37052;DHT22;22964;52.272;13.356;2022-11-20T08:52:38;4.10;71.80
37052;DHT22;22964;52.272;13.356;2022-11-20T08:55:05;4.10;71.90
37052;DHT22;22964;52.272;13.356;2022-11-20T08:57:32;4.10;72.00
37052;DHT22;22964;52.272;13.356;2022-11-20T08:59:58;4.10;72.00
37052;DHT22;22964;52.272;13.356;2022-11-20T09:02:24;4.10;72.00
37052;DHT22;22964;52.272;13.356;2022-11-20T09:04:50;4.10;72.10
37052;DHT22;22964;52.272;13.356;2022-11-20T09:07:15;4.20;72.00
37052;DHT22;22964;52.272;13.356;2022-11-20T09:09:41;4.20;72.00
37052;DHT22;22964;52.272;13.356;2022-11-20T09:12:07;4.20;71.80
37052;DHT22;22964;52.272;13.356;2022-11-20T09:14:33;4.20;71.70
37052;DHT22;22964;52.272;13.356;2022-11-20T09:16:59;4.20;71.60
37052;DHT22;22964;52.272;13.356;2022-11-20T09:19:25;4.20;71.50
37052;DHT22;22964;52.272;13.356;2022-11-20T09:21:51;4.20;71.40
37052;DHT22;22964;52.272;13.356;2022-11-20T09:24:17;4.20;71.40
37052;DHT22;22964;52.272;13.356;2022-11-20T09:26:43;4.20;71.40
37052;DHT22;22964;52.272;13.356;2022-11-20T09:29:09;4.20;71.10
37052;DHT22;22964;52.272;13.356;2022-11-20T09:31:34;4.20;71.00
37052;DHT22;22964;52.272;13.356;2022-11-20T09:34:00;4.20;71.80
37052;DHT22;22964;52.272;13.356;2022-11-20T09:36:26;4.20;71.00
37052;DHT22;22964;52.272;13.356;2022-11-20T09:38:52;4.20;71.00
37052;DHT22;22964;52.272;13.356;2022-11-20T09:44:04;4.20;71.00
37052;DHT22;22964;52.272;13.356;2022-11-20T09:46:50;4.20;71.00
37052;DHT22;22964;52.272;13.356;2022-11-20T09:52:09;4.20;71.00
37052;DHT22;22964;52.272;13.356;2022-11-20T09:54:39;4.20;71.10
37052;DHT22;22964;52.272;13.356;2022-11-20T09:57:12;4.30;71.10
37052;DHT22;22964;52.272;13.356;2022-11-20T09:59:45;4.20;70.80
37052;DHT22;22964;52.272;13.356;2022-11-20T10:05:04;4.30;71.30
37052;DHT22;22964;52.272;13.356;2022-11-20T10:07:38;4.30;70.90
37052;DHT22;22964;52.272;13.356;2022-11-20T10:10:20;4.30;71.00
37052;DHT22;22964;52.272;13.356;2022-11-20T10:13:03;4.40;71.00
37052;DHT22;22964;52.272;13.356;2022-11-20T10:18:38;4.40;71.00
37052;DHT22;22964;52.272;13.356;2022-11-20T10:29:34;4.50;71.70
37052;DHT22;22964;52.272;13.356;2022-11-20T10:32:07;4.50;71.10
37052;DHT22;22964;52.272;13.356;2022-11-20T10:34:50;4.50;71.00
37052;DHT22;22964;52.272;13.356;2022-11-20T10:37:24;4.50;70.90
37052;DHT22;22964;52.272;13.356;2022-11-20T10:42:37;4.60;70.90
37052;DHT22;22964;52.272;13.356;2022-11-20T10:45:31;4.70;71.00
37052;DHT22;22964;52.272;13.356;2022-11-20T10:48:27;4.70;71.70
37052;DHT22;22964;52.272;13.356;2022-11-20T10:56:22;4.80;70.90
37052;DHT22;22964;52.272;13.356;2022-11-20T11:01:41;4.90;70.90
37052;DHT22;22964;52.272;13.356;2022-11-20T11:04:46;4.90;71.00
37052;DHT22;22964;52.272;13.356;2022-11-20T11:09:44;5.00;71.00
37052;DHT22;22964;52.272;13.356;2022-11-20T11:12:12;5.00;71.90
37052;DHT22;22964;52.272;13.356;2022-11-20T11:14:46;5.00;71.10
37052;DHT22;22964;52.272;13.356;2022-11-20T11:22:48;5.10;71.10
37052;DHT22;22964;52.272;13.356;2022-11-20T11:27:50;5.20;71.00
37052;DHT22;22964;52.272;13.356;2022-11-20T11:30:18;5.20;71.10
37052;DHT22;22964;52.272;13.356;2022-11-20T11:32:44;5.30;71.30
37052;DHT22;22964;52.272;13.356;2022-11-20T11:35:20;5.30;71.30
37052;DHT22;22964;52.272;13.356;2022-11-20T11:37:47;5.30;71.30
37052;DHT22;22964;52.272;13.356;2022-11-20T11:40:14;5.40;71.40
37052;DHT22;22964;52.272;13.356;2022-11-20T11:42:42;5.40;71.40
37052;DHT22;22964;52.272;13.356;2022-11-20T11:45:14;5.40;71.60
37052;DHT22;22964;52.272;13.356;2022-11-20T11:52:43;5.60;71.60
37052;DHT22;22964;52.272;13.356;2022-11-20T11:55:14;5.70;71.40
37052;DHT22;22964;52.272;13.356;2022-11-20T12:00:21;5.80;72.00
37052;DHT22;22964;52.272;13.356;2022-11-20T12:02:56;5.90;72.10
37052;DHT22;22964;52.272;13.356;2022-11-20T12:05:46;6.00;72.00
37052;DHT22;22964;52.272;13.356;2022-11-20T12:08:43;6.10;71.60
37052;DHT22;22964;52.272;13.356;2022-11-20T12:14:14;6.30;71.50
37052;DHT22;22964;52.272;13.356;2022-11-20T12:16:44;6.30;69.90
37052;DHT22;22964;52.272;13.356;2022-11-20T12:19:12;6.30;70.00
37052;DHT22;22964;52.272;13.356;2022-11-20T12:24:37;6.40;69.30
37052;DHT22;22964;52.272;13.356;2022-11-20T12:30:18;6.40;69.20
37052;DHT22;22964;52.272;13.356;2022-11-20T12:33:25;6.40;69.40
37052;DHT22;22964;52.272;13.356;2022-11-20T12:36:18;6.40;69.40
37052;DHT22;22964;52.272;13.356;2022-11-20T12:42:23;6.30;69.90
37052;DHT22;22964;52.272;13.356;2022-11-20T12:51:03;6.20;70.60
37052;DHT22;22964;52.272;13.356;2022-11-20T12:59:27;6.20;70.90
37052;DHT22;22964;52.272;13.356;2022-11-20T13:07:07;6.20;70.80
37052;DHT22;22964;52.272;13.356;2022-11-20T13:09:39;6.20;70.90
37052;DHT22;22964;52.272;13.356;2022-11-20T13:14:58;6.20;71.00
37052;DHT22;22964;52.272;13.356;2022-11-20T13:20:17;6.20;71.00
37052;DHT22;22964;52.272;13.356;2022-11-20T13:22:52;6.20;71.10
37052;DHT22;22964;52.272;13.356;2022-11-20T13:25:39;6.20;71.10
37052;DHT22;22964;52.272;13.356;2022-11-20T13:28:28;6.20;71.00
37052;DHT22;22964;52.272;13.356;2022-11-20T13:30:56;6.20;71.00
37052;DHT22;22964;52.272;13.356;2022-11-20T13:33:36;6.20;71.00
37052;DHT22;22964;52.272;13.356;2022-11-20T13:36:29;6.10;70.80
37052;DHT22;22964;52.272;13.356;2022-11-20T13:38:55;6.10;71.00
37052;DHT22;22964;52.272;13.356;2022-11-20T13:41:25;6.20;71.10
37052;DHT22;22964;52.272;13.356;2022-11-20T13:43:58;6.20;71.10
37052;DHT22;22964;52.272;13.356;2022-11-20T13:46:45;6.10;71.10
37052;DHT22;22964;52.272;13.356;2022-11-20T13:49:27;6.20;71.20
37052;DHT22;22964;52.272;13.356;2022-11-20T14:00:21;6.10;71.40
37052;DHT22;22964;52.272;13.356;2022-11-20T14:05:38;6.10;71.90
37052;DHT22;22964;52.272;13.356;2022-11-20T14:08:06;6.10;71.60
37052;DHT22;22964;52.272;13.356;2022-11-20T14:10:37;6.10;71.70
37052;DHT22;22964;52.272;13.356;2022-11-20T14:13:20;6.10;71.80
37052;DHT22;22964;52.272;13.356;2022-11-20T14:15:46;6.10;71.90
37052;DHT22;22964;52.272;13.356;2022-11-20T14:18:19;6.10;71.90
37052;DHT22;22964;52.272;13.356;2022-11-20T14:20:45;6.10;72.00
37052;DHT22;22964;52.272;13.356;2022-11-20T14:23:11;6.10;72.10
37052;DHT22;22964;52.272;13.356;2022-11-20T14:25:42;6.10;72.20
37052;DHT22;22964;52.272;13.356;2022-11-20T14:28:11;6.00;72.10
37052;DHT22;22964;52.272;13.356;2022-11-20T14:30:47;6.00;72.20
37052;DHT22;22964;52.272;13.356;2022-11-20T14:33:14;6.00;72.30
37052;DHT22;22964;52.272;13.356;2022-11-20T14:35:45;6.00;72.30
37052;DHT22;22964;52.272;13.356;2022-11-20T14:38:17;6.00;72.40
37052;DHT22;22964;52.272;13.356;2022-11-20T14:40:43;6.00;72.30
37052;DHT22;22964;52.272;13.356;2022-11-20T14:43:27;6.00;72.30
37052;DHT22;22964;52.272;13.356;2022-11-20T14:45:59;6.00;72.40
37052;DHT22;22964;52.272;13.356;2022-11-20T14:51:04;6.00;72.30
37052;DHT22;22964;52.272;13.356;2022-11-20T14:53:29;6.00;72.30
37052;DHT22;22964;52.272;13.356;2022-11-20T14:56:01;6.00;72.30
37052;DHT22;22964;52.272;13.356;2022-11-20T14:58:32;6.00;72.30
37052;DHT22;22964;52.272;13.356;2022-11-20T15:01:06;6.00;72.30
37052;DHT22;22964;52.272;13.356;2022-11-20T15:05:58;6.00;72.20
37052;DHT22;22964;52.272;13.356;2022-11-20T15:08:24;6.10;72.20
37052;DHT22;22964;52.272;13.356;2022-11-20T15:10:51;6.00;72.00
37052;DHT22;22964;52.272;13.356;2022-11-20T15:13:37;6.00;72.80
37052;DHT22;22964;52.272;13.356;2022-11-20T15:16:08;6.00;71.80
37052;DHT22;22964;52.272;13.356;2022-11-20T15:18:40;6.00;71.80
37052;DHT22;22964;52.272;13.356;2022-11-20T15:21:12;6.00;71.70
37052;DHT22;22964;52.272;13.356;2022-11-20T15:23:39;6.00;71.60
37052;DHT22;22964;52.272;13.356;2022-11-20T15:26:10;5.90;71.60
37052;DHT22;22964;52.272;13.356;2022-11-20T15:28:39;5.90;71.50
37052;DHT22;22964;52.272;13.356;2022-11-20T15:31:05;5.90;71.50
37052;DHT22;22964;52.272;13.356;2022-11-20T15:33:32;5.80;71.50
37052;DHT22;22964;52.272;13.356;2022-11-20T15:35:58;5.80;71.50
37052;DHT22;22964;52.272;13.356;2022-11-20T15:38:24;5.80;72.40
37052;DHT22;22964;52.272;13.356;2022-11-20T15:40:50;5.80;71.70
37052;DHT22;22964;52.272;13.356;2022-11-20T15:43:16;5.80;71.70
37052;DHT22;22964;52.272;13.356;2022-11-20T15:45:44;5.70;71.70
37052;DHT22;22964;52.272;13.356;2022-11-20T15:48:29;5.80;71.90
37052;DHT22;22964;52.272;13.356;2022-11-20T15:53:40;5.80;72.00
37052;DHT22;22964;52.272;13.356;2022-11-20T15:56:11;5.80;72.10
37052;DHT22;22964;52.272;13.356;2022-11-20T15:58:38;5.80;72.10
37052;DHT22;22964;52.272;13.356;2022-11-20T16:01:04;5.80;73.00
37052;DHT22;22964;52.272;13.356;2022-11-20T16:03:30;5.70;72.10
37052;DHT22;22964;52.272;13.356;2022-11-20T16:05:55;5.80;72.10
37052;DHT22;22964;52.272;13.356;2022-11-20T16:08:21;5.70;72.10
37052;DHT22;22964;52.272;13.356;2022-11-20T16:10:47;5.70;72.00
37052;DHT22;22964;52.272;13.356;2022-11-20T16:13:14;5.70;72.00
37052;DHT22;22964;52.272;13.356;2022-11-20T16:16:02;5.70;72.10
37052;DHT22;22964;52.272;13.356;2022-11-20T16:18:31;5.70;72.00
37052;DHT22;22964;52.272;13.356;2022-11-20T16:20:57;5.80;72.10
37052;DHT22;22964;52.272;13.356;2022-11-20T16:23:23;5.70;72.00
37052;DHT22;22964;52.272;13.356;2022-11-20T16:25:49;5.80;72.00
37052;DHT22;22964;52.272;13.356;2022-11-20T16:28:15;5.70;72.00
37052;DHT22;22964;52.272;13.356;2022-11-20T16:30:41;5.80;72.10
37052;DHT22;22964;52.272;13.356;2022-11-20T16:33:15;5.70;72.10
37052;DHT22;22964;52.272;13.356;2022-11-20T16:35:41;5.80;72.10
37052;DHT22;22964;52.272;13.356;2022-11-20T16:38:07;5.80;72.10
37052;DHT22;22964;52.272;13.356;2022-11-20T16:40:32;5.80;72.00
37052;DHT22;22964;52.272;13.356;2022-11-20T16:43:09;5.80;72.00
37052;DHT22;22964;52.272;13.356;2022-11-20T16:45:40;5.80;71.90
37052;DHT22;22964;52.272;13.356;2022-11-20T16:48:06;5.80;72.70
37052;DHT22;22964;52.272;13.356;2022-11-20T16:50:31;5.80;71.90
37052;DHT22;22964;52.272;13.356;2022-11-20T16:52:57;5.80;71.80
37052;DHT22;22964;52.272;13.356;2022-11-20T16:55:23;5.80;71.80
37052;DHT22;22964;52.272;13.356;2022-11-20T16:57:48;5.80;71.80
37052;DHT22;22964;52.272;13.356;2022-11-20T17:00:14;5.90;71.90
37052;DHT22;22964;52.272;13.356;2022-11-20T17:02:40;5.90;71.90
37052;DHT22;22964;52.272;13.356;2022-11-20T17:05:06;5.80;71.80
37052;DHT22;22964;52.272;13.356;2022-11-20T17:07:32;5.90;71.80
37052;DHT22;22964;52.272;13.356;2022-11-20T17:09:57;5.90;71.80
37052;DHT22;22964;52.272;13.356;2022-11-20T17:12:23;5.90;71.60
37052;DHT22;22964;52.272;13.356;2022-11-20T17:14:49;5.90;71.50
37052;DHT22;22964;52.272;13.356;2022-11-20T17:17:15;5.80;71.40
37052;DHT22;22964;52.272;13.356;2022-11-20T17:19:40;5.80;71.40
37052;DHT22;22964;52.272;13.356;2022-11-20T17:22:06;5.80;71.40
37052;DHT22;22964;52.272;13.356;2022-11-20T17:24:32;5.80;71.40
37052;DHT22;22964;52.272;13.356;2022-11-20T17:26:57;5.80;71.30
37052;DHT22;22964;52.272;13.356;2022-11-20T17:29:23;5.80;71.30